Time;durP1;ratioP1;P1;durP2;ratioP2;P2;SDS_P1;SDS_P2;PMS_P1;PMS_P2;Temp;Humidity;BMP_temperature;BMP_pressure;BME280_temperature;BME280_humidity;BME280_pressure;Samples;Min_cycle;Max_cycle;Signal;HPM_P1;HPM_P2
2023/11/06 00:00:05;;;;;;;3.03;1.00;;;;;;;;;;706174;27;1301;-64
2023/11/06 00:00:27;;;;;;;4.63;0.93;;;;;;;;;;705545;27;862;-63
2023/11/06 00:00:48;;;;;;;5.20;1.30;;;;;;;;;;703781;27;4393;-64
2023/11/06 00:01:08;;;;;;;4.03;1.40;;;;;;;;;;704645;27;935;-63
2023/11/06 00:01:29;;;;;;;3.07;1.13;;;;;;;;;;705744;27;1161;-65
2023/11/06 00:01:49;;;;;;;2.73;1.03;;;;;;;;;;704192;27;1697;-65
2023/11/06 00:02:09;;;;;;;4.37;1.20;;;;;;;;;;705354;27;860;-64
2023/11/06 00:02:30;;;;;;;5.22;1.13;;;;;;;;;;704260;27;2158;-66
2023/11/06 00:02:50;;;;;;;4.33;1.30;;;;;;;;;;707035;27;863;-64
2023/11/06 00:03:10;;;;;;;4.33;1.20;;;;;;;;;;704408;27;1114;-64
2023/11/06 00:03:30;;;;;;;6.60;1.20;;;;;;;;;;704401;27;1741;-66
2023/11/06 00:03:51;;;;;;;4.57;1.20;;;;;;;;;;705498;27;4235;-65
2023/11/06 00:04:14;;;;;;;5.50;1.15;;;;;;;;;;706794;27;781;-65
2023/11/06 00:04:35;;;;;;;5.28;1.27;;;;;;;;;;705307;27;1864;-64
2023/11/06 00:04:57;;;;;;;4.80;1.23;;;;;;;;;;705778;27;1261;-64
2023/11/06 00:05:18;;;;;;;4.53;1.10;;;;;;;;;;705123;27;1890;-65
2023/11/06 00:05:38;;;;;;;6.47;1.10;;;;;;;;;;704866;27;2267;-66
2023/11/06 00:05:59;;;;;;;5.23;1.13;;;;;;;;;;705767;27;820;-66
2023/11/06 00:06:19;;;;;;;4.03;1.10;;;;;;;;;;699205;28;1280;-66
2023/11/06 00:06:40;;;;;;;4.57;0.90;;;;;;;;;;696223;28;1777;-65
2023/11/06 00:07:02;;;;;;;4.05;1.05;;;;;;;;;;696384;28;4235;-65
2023/11/06 00:07:23;;;;;;;5.63;1.30;;;;;;;;;;697250;28;927;-67
2023/11/06 00:07:45;;;;;;;4.25;1.10;;;;;;;;;;696678;28;1506;-65
2023/11/06 00:08:06;;;;;;;5.13;1.13;;;;;;;;;;697744;28;1241;-64
2023/11/06 00:08:27;;;;;;;4.35;1.20;;;;;;;;;;700906;28;856;-65
2023/11/06 00:08:48;;;;;;;4.88;1.10;;;;;;;;;;702083;28;1853;-65
2023/11/06 00:09:08;;;;;;;4.17;1.00;;;;;;;;;;702098;28;820;-64
2023/11/06 00:09:29;;;;;;;3.83;1.02;;;;;;;;;;702138;27;1182;-66
2023/11/06 00:09:50;;;;;;;4.40;1.00;;;;;;;;;;705080;27;4342;-68
2023/11/06 00:10:11;;;;;;;3.53;0.85;;;;;;;;;;704171;28;935;-64
2023/11/06 00:10:31;;;;;;;4.20;0.98;;;;;;;;;;701863;28;2346;-65
2023/11/06 00:10:53;;;;;;;4.17;1.00;;;;;;;;;;703707;28;864;-64
2023/11/06 00:11:13;;;;;;;6.03;1.20;;;;;;;;;;703421;28;1273;-66
2023/11/06 00:11:34;;;;;;;6.05;1.60;;;;;;;;;;702088;28;1812;-67
2023/11/06 00:11:55;;;;;;;5.43;1.30;;;;;;;;;;704541;27;763;-66
2023/11/06 00:12:15;;;;;;;4.15;1.33;;;;;;;;;;704791;28;761;-65
2023/11/06 00:12:36;;;;;;;4.00;1.50;;;;;;;;;;701429;28;2255;-65
2023/11/06 00:12:56;;;;;;;5.93;1.13;;;;;;;;;;702818;28;4357;-66
2023/11/06 00:13:16;;;;;;;5.50;1.10;;;;;;;;;;702393;28;1432;-65
2023/11/06 00:13:36;;;;;;;5.57;1.03;;;;;;;;;;701615;28;913;-66
2023/11/06 00:13:57;;;;;;;4.88;1.08;;;;;;;;;;702487;28;919;-65
2023/11/06 00:14:17;;;;;;;4.07;1.13;;;;;;;;;;702438;28;920;-66
2023/11/06 00:14:37;;;;;;;4.13;1.10;;;;;;;;;;701977;28;1729;-66
2023/11/06 00:14:57;;;;;;;6.00;1.40;;;;;;;;;;702976;28;1208;-64
2023/11/06 00:15:20;;;;;;;4.55;1.20;;;;;;;;;;702739;28;773;-64
2023/11/06 00:15:41;;;;;;;5.07;1.20;;;;;;;;;;700986;28;1105;-66
2023/11/06 00:16:01;;;;;;;4.63;1.10;;;;;;;;;;702329;28;4385;-67
2023/11/06 00:16:21;;;;;;;5.90;1.40;;;;;;;;;;704201;27;1257;-65
2023/11/06 00:16:42;;;;;;;4.45;1.02;;;;;;;;;;703204;27;1710;-67
2023/11/06 00:17:02;;;;;;;4.33;1.20;;;;;;;;;;705538;27;931;-66
2023/11/06 00:17:25;;;;;;;5.28;1.10;;;;;;;;;;704809;27;903;-65
2023/11/06 00:17:46;;;;;;;3.65;1.30;;;;;;;;;;703220;27;1795;-66
2023/11/06 00:18:07;;;;;;;4.32;1.10;;;;;;;;;;705473;27;1249;-64
2023/11/06 00:18:29;;;;;;;5.22;1.30;;;;;;;;;;705512;27;1254;-66
2023/11/06 00:18:49;;;;;;;5.22;1.10;;;;;;;;;;703528;27;4427;-66
2023/11/06 00:19:09;;;;;;;4.60;0.93;;;;;;;;;;704618;27;727;-65
2023/11/06 00:19:30;;;;;;;3.53;1.00;;;;;;;;;;706091;27;1316;-67
2023/11/06 00:19:50;;;;;;;3.20;0.98;;;;;;;;;;703191;27;1693;-68
2023/11/06 00:20:11;;;;;;;5.20;1.10;;;;;;;;;;699337;28;3425;-63
2023/11/06 00:20:32;;;;;;;3.63;1.00;;;;;;;;;;698419;28;1724;-67
2023/11/06 00:20:53;;;;;;;5.43;1.20;;;;;;;;;;700771;28;1030;-65
2023/11/06 00:21:13;;;;;;;4.85;1.20;;;;;;;;;;699716;28;1487;-65
2023/11/06 00:21:35;;;;;;;4.97;1.40;;;;;;;;;;698943;28;1742;-64
2023/11/06 00:21:57;;;;;;;4.90;1.33;;;;;;;;;;700098;27;4415;-67
2023/11/06 00:22:17;;;;;;;4.32;1.00;;;;;;;;;;705091;27;990;-64
2023/11/06 00:22:38;;;;;;;3.80;1.00;;;;;;;;;;705548;27;1208;-65
2023/11/06 00:22:58;;;;;;;5.00;1.20;;;;;;;;;;705502;27;1228;-65
2023/11/06 00:23:19;;;;;;;4.45;1.15;;;;;;;;;;705446;27;1172;-65
2023/11/06 00:23:39;;;;;;;5.43;1.10;;;;;;;;;;704407;27;1187;-64
2023/11/06 00:24:00;;;;;;;4.97;1.10;;;;;;;;;;704521;27;855;-65
2023/11/06 00:24:20;;;;;;;4.70;1.33;;;;;;;;;;706004;27;1279;-65
2023/11/06 00:24:40;;;;;;;4.78;1.08;;;;;;;;;;705182;27;2167;-65
2023/11/06 00:25:00;;;;;;;3.37;1.10;;;;;;;;;;701338;28;4685;-64
2023/11/06 00:25:21;;;;;;;3.67;1.00;;;;;;;;;;701498;28;1914;-63
2023/11/06 00:25:41;;;;;;;3.00;1.00;;;;;;;;;;701332;28;2344;-65
2023/11/06 00:26:03;;;;;;;5.53;1.20;;;;;;;;;;702463;28;1364;-65
2023/11/06 00:26:23;;;;;;;4.47;0.90;;;;;;;;;;702999;28;1057;-66
2023/11/06 00:26:48;;;;;;;3.45;1.00;;;;;;;;;;699156;28;1724;-64
2023/11/06 00:27:08;;;;;;;3.87;1.00;;;;;;;;;;699909;28;947;-65
2023/11/06 00:27:29;;;;;;;4.33;1.10;;;;;;;;;;699487;28;919;-65
2023/11/06 00:27:50;;;;;;;5.05;0.93;;;;;;;;;;698828;28;4350;-65
2023/11/06 00:28:11;;;;;;;4.40;1.00;;;;;;;;;;699141;28;932;-65
2023/11/06 00:28:31;;;;;;;3.03;1.00;;;;;;;;;;700990;28;1303;-63
2023/11/06 00:28:53;;;;;;;4.32;1.00;;;;;;;;;;702437;28;1018;-63
2023/11/06 00:29:14;;;;;;;4.95;1.48;;;;;;;;;;706485;27;974;-65
2023/11/06 00:29:34;;;;;;;4.70;1.40;;;;;;;;;;702237;28;1522;-64
2023/11/06 00:29:54;;;;;;;3.67;0.97;;;;;;;;;;703210;28;816;-64
2023/11/06 00:30:14;;;;;;;4.18;1.08;;;;;;;;;;703562;28;1376;-64
2023/11/06 00:30:35;;;;;;;3.57;1.07;;;;;;;;;;699348;28;1724;-65
2023/11/06 00:30:56;;;;;;;4.03;1.40;;;;;;;;;;697930;28;5148;-64
2023/11/06 00:31:16;;;;;;;5.00;1.35;;;;;;;;;;698217;28;982;-65
2023/11/06 00:31:39;;;;;;;3.80;1.20;;;;;;;;;;696264;28;1802;-64
2023/11/06 00:32:02;;;;;;;5.45;1.20;;;;;;;;;;698391;28;1280;-65
2023/11/06 00:32:22;;;;;;;4.68;1.30;;;;;;;;;;699788;28;901;-65
2023/11/06 00:32:42;;;;;;;4.80;1.13;;;;;;;;;;701043;27;2256;-64
2023/11/06 00:33:03;;;;;;;3.90;1.17;;;;;;;;;;702884;28;1210;-65
2023/11/06 00:33:23;;;;;;;3.77;1.07;;;;;;;;;;699397;28;863;-64
2023/11/06 00:33:44;;;;;;;3.73;1.00;;;;;;;;;;699122;28;4228;-64
2023/11/06 00:34:04;;;;;;;5.60;1.20;;;;;;;;;;697517;28;888;-65
2023/11/06 00:34:24;;;;;;;4.70;1.40;;;;;;;;;;698263;28;1438;-66
2023/11/06 00:34:44;;;;;;;6.77;1.20;;;;;;;;;;693107;28;2634;-67
2023/11/06 00:35:05;;;;;;;3.65;0.90;;;;;;;;;;697298;28;1259;-66
2023/11/06 00:35:25;;;;;;;2.87;0.90;;;;;;;;;;698153;28;892;-66
2023/11/06 00:35:46;;;;;;;3.70;1.20;;;;;;;;;;696370;28;1736;-61
2023/11/06 00:36:17;;;;;;;4.17;1.30;;;;;;;;;;701062;28;1469;-64
2023/11/06 00:36:37;;;;;;;4.55;1.08;;;;;;;;;;696798;28;2313;-64
2023/11/06 00:36:57;;;;;;;4.70;1.23;;;;;;;;;;699898;28;4372;-64
2023/11/06 00:37:17;;;;;;;4.45;1.35;;;;;;;;;;701707;28;935;-64
2023/11/06 00:37:38;;;;;;;7.53;1.50;;;;;;;;;;701325;28;2591;-64
2023/11/06 00:37:58;;;;;;;7.77;1.37;;;;;;;;;;701238;28;1368;-63
2023/11/06 00:38:18;;;;;;;5.80;1.20;;;;;;;;;;702531;28;815;-64
2023/11/06 00:38:39;;;;;;;3.90;1.10;;;;;;;;;;698914;28;2198;-65
2023/11/06 00:39:00;;;;;;;5.18;1.20;;;;;;;;;;702151;28;5615;-66
2023/11/06 00:39:20;;;;;;;5.50;1.40;;;;;;;;;;703569;28;883;-65
2023/11/06 00:39:42;;;;;;;4.70;1.40;;;;;;;;;;697661;28;2361;-64
2023/11/06 00:40:03;;;;;;;4.88;1.30;;;;;;;;;;702028;28;4680;-65
2023/11/06 00:40:24;;;;;;;4.93;1.30;;;;;;;;;;699431;28;1572;-64
2023/11/06 00:40:45;;;;;;;4.53;1.17;;;;;;;;;;695512;28;1589;-64
2023/11/06 00:41:05;;;;;;;5.50;1.52;;;;;;;;;;696397;28;955;-65
2023/11/06 00:41:25;;;;;;;6.33;1.63;;;;;;;;;;696664;28;1140;-65
2023/11/06 00:41:45;;;;;;;4.73;1.40;;;;;;;;;;699624;28;1522;-66
2023/11/06 00:42:07;;;;;;;5.75;1.77;;;;;;;;;;699454;28;947;-65
2023/11/06 00:42:28;;;;;;;5.25;1.00;;;;;;;;;;699814;28;1226;-64
2023/11/06 00:42:48;;;;;;;4.50;1.10;;;;;;;;;;698413;28;4472;-65
2023/11/06 00:43:08;;;;;;;4.17;1.20;;;;;;;;;;699917;28;781;-64
2023/11/06 00:43:28;;;;;;;2.95;1.08;;;;;;;;;;699687;28;1302;-65
2023/11/06 00:43:49;;;;;;;4.50;1.00;;;;;;;;;;698181;28;2126;-64
2023/11/06 00:44:09;;;;;;;5.53;1.20;;;;;;;;;;700471;28;951;-65
2023/11/06 00:44:29;;;;;;;4.53;1.17;;;;;;;;;;703736;28;1030;-67
2023/11/06 00:44:50;;;;;;;3.93;1.00;;;;;;;;;;701663;28;1421;-64
2023/11/06 00:45:10;;;;;;;4.47;1.10;;;;;;;;;;700558;28;1313;-64
2023/11/06 00:45:30;;;;;;;5.78;1.20;;;;;;;;;;703610;28;1981;-64
2023/11/06 00:45:51;;;;;;;5.90;1.10;;;;;;;;;;700640;28;4413;-67
2023/11/06 00:46:11;;;;;;;4.27;1.07;;;;;;;;;;703071;27;1266;-66
2023/11/06 00:46:31;;;;;;;6.10;1.40;;;;;;;;;;703004;28;824;-64
2023/11/06 00:46:51;;;;;;;7.03;1.70;;;;;;;;;;700653;28;1427;-64
2023/11/06 00:47:12;;;;;;;5.30;1.30;;;;;;;;;;701056;28;826;-65
2023/11/06 00:47:32;;;;;;;2.90;1.02;;;;;;;;;;701681;28;943;-65
2023/11/06 00:47:52;;;;;;;3.60;1.00;;;;;;;;;;698077;28;1513;-64
2023/11/06 00:48:13;;;;;;;2.83;0.90;;;;;;;;;;698564;28;1305;-65
2023/11/06 00:48:33;;;;;;;3.55;1.05;;;;;;;;;;698050;28;1131;-64
2023/11/06 00:48:54;;;;;;;6.10;1.20;;;;;;;;;;697361;28;4325;-63
2023/11/06 00:49:14;;;;;;;6.17;1.13;;;;;;;;;;698091;28;903;-65
2023/11/06 00:49:34;;;;;;;5.93;1.10;;;;;;;;;;697199;28;1234;-65
2023/11/06 00:49:55;;;;;;;4.63;1.03;;;;;;;;;;698228;28;1533;-68
2023/11/06 00:50:16;;;;;;;2.80;0.80;;;;;;;;;;698144;28;1225;-68
2023/11/06 00:50:36;;;;;;;5.00;1.40;;;;;;;;;;695818;28;1254;-65
2023/11/06 00:50:56;;;;;;;5.13;1.57;;;;;;;;;;697461;28;2112;-64
2023/11/06 00:51:16;;;;;;;6.18;1.05;;;;;;;;;;697750;28;1147;-64
2023/11/06 00:51:38;;;;;;;5.83;1.23;;;;;;;;;;697408;28;1278;-63
2023/11/06 00:51:58;;;;;;;6.10;1.42;;;;;;;;;;700624;28;4309;-65
2023/11/06 00:52:19;;;;;;;4.25;1.20;;;;;;;;;;700986;28;896;-65
2023/11/06 00:52:39;;;;;;;3.30;1.20;;;;;;;;;;697098;28;1350;-63
2023/11/06 00:52:59;;;;;;;2.78;1.25;;;;;;;;;;701090;28;1197;-68
2023/11/06 00:53:20;;;;;;;4.30;1.33;;;;;;;;;;700999;28;828;-66
2023/11/06 00:53:40;;;;;;;3.90;1.00;;;;;;;;;;699325;28;1174;-64
2023/11/06 00:54:00;;;;;;;4.90;1.20;;;;;;;;;;701396;28;824;-64
2023/11/06 00:54:20;;;;;;;6.47;1.33;;;;;;;;;;700680;28;1286;-64
2023/11/06 00:54:41;;;;;;;5.87;1.17;;;;;;;;;;700606;28;1084;-65
2023/11/06 00:55:01;;;;;;;2.92;1.02;;;;;;;;;;702301;28;4621;-66
2023/11/06 00:55:21;;;;;;;3.83;1.00;;;;;;;;;;701994;28;907;-65
2023/11/06 00:55:42;;;;;;;3.97;1.13;;;;;;;;;;700798;28;1178;-67
2023/11/06 00:56:03;;;;;;;3.70;1.10;;;;;;;;;;703612;28;1368;-66
2023/11/06 00:56:23;;;;;;;4.90;1.08;;;;;;;;;;703465;28;1185;-65
2023/11/06 00:56:43;;;;;;;3.70;1.00;;;;;;;;;;702456;28;923;-64
2023/11/06 00:57:03;;;;;;;4.63;1.20;;;;;;;;;;701364;28;1151;-65
2023/11/06 00:57:24;;;;;;;4.88;1.20;;;;;;;;;;700971;28;1352;-66
2023/11/06 00:57:46;;;;;;;5.50;1.20;;;;;;;;;;696715;28;4372;-65
2023/11/06 00:58:07;;;;;;;4.07;1.02;;;;;;;;;;697088;28;1233;-65
2023/11/06 00:58:27;;;;;;;4.17;1.57;;;;;;;;;;696344;28;876;-67
2023/11/06 00:58:47;;;;;;;4.73;1.80;;;;;;;;;;692066;28;1246;-65
2023/11/06 00:59:07;;;;;;;4.28;1.42;;;;;;;;;;695120;28;1672;-66
2023/11/06 00:59:28;;;;;;;4.67;1.20;;;;;;;;;;695718;28;904;-65
2023/11/06 00:59:48;;;;;;;4.43;1.20;;;;;;;;;;696483;28;1112;-64
2023/11/06 01:00:13;;;;;;;6.20;1.30;;;;;;;;;;697366;28;809;-65
2023/11/06 01:00:34;;;;;;;6.75;1.73;;;;;;;;;;695732;28;893;-66
2023/11/06 01:00:55;;;;;;;5.47;1.38;;;;;;;;;;697186;28;4259;-66
2023/11/06 01:01:15;;;;;;;4.38;1.08;;;;;;;;;;701190;28;800;-66
2023/11/06 01:01:36;;;;;;;5.23;1.00;;;;;;;;;;697423;28;1405;-66
2023/11/06 01:01:56;;;;;;;5.22;1.10;;;;;;;;;;700950;28;944;-64
2023/11/06 01:02:17;;;;;;;4.97;1.10;;;;;;;;;;700888;28;1274;-66
2023/11/06 01:02:37;;;;;;;4.63;1.00;;;;;;;;;;701358;28;961;-64
2023/11/06 01:02:58;;;;;;;4.03;1.20;;;;;;;;;;701581;28;813;-67
2023/11/06 01:03:19;;;;;;;5.00;1.30;;;;;;;;;;703555;27;1037;-65
2023/11/06 01:03:39;;;;;;;4.07;1.02;;;;;;;;;;701118;28;1206;-64
2023/11/06 01:04:01;;;;;;;5.85;1.20;;;;;;;;;;698172;28;4503;-65
2023/11/06 01:04:21;;;;;;;4.50;1.17;;;;;;;;;;698928;28;916;-67
2023/11/06 01:04:41;;;;;;;4.60;1.07;;;;;;;;;;696599;28;1098;-65
2023/11/06 01:05:01;;;;;;;5.85;1.50;;;;;;;;;;695374;28;1551;-65
2023/11/06 01:05:22;;;;;;;4.43;1.37;;;;;;;;;;695870;28;1967;-64
2023/11/06 01:05:43;;;;;;;3.95;1.00;;;;;;;;;;694300;28;1231;-65
2023/11/06 01:06:03;;;;;;;3.60;1.10;;;;;;;;;;697021;28;852;-64
2023/11/06 01:06:24;;;;;;;3.55;1.13;;;;;;;;;;698741;28;923;-67
2023/11/06 01:06:45;;;;;;;3.80;1.13;;;;;;;;;;700307;28;4235;-65
2023/11/06 01:07:06;;;;;;;4.18;1.30;;;;;;;;;;698937;28;1270;-65
2023/11/06 01:07:26;;;;;;;5.30;1.20;;;;;;;;;;699603;28;900;-65
2023/11/06 01:07:47;;;;;;;4.67;1.10;;;;;;;;;;702315;28;1108;-65
2023/11/06 01:08:07;;;;;;;3.65;1.00;;;;;;;;;;701203;28;1243;-64
2023/11/06 01:08:27;;;;;;;3.63;0.97;;;;;;;;;;698251;28;1143;-66
2023/11/06 01:08:48;;;;;;;5.33;1.13;;;;;;;;;;693354;28;1356;-67
2023/11/06 01:09:08;;;;;;;5.50;1.30;;;;;;;;;;698565;28;975;-66
2023/11/06 01:09:30;;;;;;;5.73;1.20;;;;;;;;;;695482;28;1191;-66
2023/11/06 01:09:51;;;;;;;5.72;1.20;;;;;;;;;;694028;28;4340;-66
2023/11/06 01:10:14;;;;;;;3.43;1.10;;;;;;;;;;696216;28;883;-65
2023/11/06 01:10:35;;;;;;;4.50;1.17;;;;;;;;;;696725;28;1402;-70
2023/11/06 01:10:55;;;;;;;3.72;1.00;;;;;;;;;;699722;28;1263;-65
2023/11/06 01:11:15;;;;;;;4.53;1.03;;;;;;;;;;700010;28;902;-66
2023/11/06 01:11:36;;;;;;;4.05;1.42;;;;;;;;;;701509;28;1111;-66
2023/11/06 01:11:56;;;;;;;4.50;1.20;;;;;;;;;;702832;28;1095;-66
2023/11/06 01:12:17;;;;;;;4.78;1.27;;;;;;;;;;698302;28;1676;-67
2023/11/06 01:12:39;;;;;;;3.97;1.10;;;;;;;;;;693826;28;1155;-67
2023/11/06 01:13:00;;;;;;;6.65;1.38;;;;;;;;;;695432;28;4229;-65
2023/11/06 01:13:21;;;;;;;4.70;1.17;;;;;;;;;;692885;28;1403;-66
2023/11/06 01:13:41;;;;;;;5.17;1.00;;;;;;;;;;688549;28;1388;-67
2023/11/06 01:14:02;;;;;;;5.47;1.20;;;;;;;;;;690347;28;893;-66
2023/11/06 01:14:23;;;;;;;6.47;1.75;;;;;;;;;;689973;28;901;-67
2023/11/06 01:14:43;;;;;;;4.63;1.10;;;;;;;;;;690754;28;1008;-67
2023/11/06 01:15:04;;;;;;;4.38;1.10;;;;;;;;;;695408;28;1262;-65
2023/11/06 01:15:25;;;;;;;4.77;1.10;;;;;;;;;;696467;28;797;-65
2023/11/06 01:15:45;;;;;;;5.38;1.30;;;;;;;;;;695219;28;4355;-64
2023/11/06 01:16:06;;;;;;;4.37;1.20;;;;;;;;;;690585;28;849;-66
2023/11/06 01:16:26;;;;;;;3.55;1.20;;;;;;;;;;690702;28;3731;-68
2023/11/06 01:16:48;;;;;;;4.75;1.40;;;;;;;;;;693554;28;2269;-64
2023/11/06 01:17:08;;;;;;;4.47;1.20;;;;;;;;;;695338;28;1396;-67
2023/11/06 01:17:28;;;;;;;6.60;1.20;;;;;;;;;;701474;28;1363;-66
2023/11/06 01:17:49;;;;;;;4.18;1.17;;;;;;;;;;697059;28;1458;-67
2023/11/06 01:18:09;;;;;;;4.50;1.23;;;;;;;;;;698927;28;1023;-66
2023/11/06 01:18:30;;;;;;;3.87;1.00;;;;;;;;;;698899;28;1309;-65
2023/11/06 01:18:50;;;;;;;5.78;1.10;;;;;;;;;;695747;28;4364;-65
2023/11/06 01:19:10;;;;;;;5.93;1.13;;;;;;;;;;697630;28;881;-64
2023/11/06 01:19:30;;;;;;;5.00;1.20;;;;;;;;;;700641;28;872;-66
2023/11/06 01:19:51;;;;;;;3.40;1.00;;;;;;;;;;701552;28;1567;-66
2023/11/06 01:20:11;;;;;;;4.25;1.10;;;;;;;;;;703557;28;1318;-66
2023/11/06 01:20:33;;;;;;;4.57;1.10;;;;;;;;;;703307;28;1407;-64
2023/11/06 01:20:53;;;;;;;4.93;1.08;;;;;;;;;;699103;28;2422;-65
2023/11/06 01:21:14;;;;;;;4.30;1.05;;;;;;;;;;696700;28;1555;-64
2023/11/06 01:21:34;;;;;;;4.33;1.10;;;;;;;;;;697631;28;1461;-66
2023/11/06 01:21:55;;;;;;;3.87;1.10;;;;;;;;;;690692;28;4346;-66
2023/11/06 01:22:15;;;;;;;5.75;1.30;;;;;;;;;;691747;28;1216;-66
2023/11/06 01:22:36;;;;;;;3.47;0.90;;;;;;;;;;692812;28;1223;-64
2023/11/06 01:22:56;;;;;;;4.47;1.10;;;;;;;;;;695780;28;1737;-67
2023/11/06 01:23:16;;;;;;;3.97;1.10;;;;;;;;;;701289;28;1260;-66
2023/11/06 01:23:37;;;;;;;5.17;1.23;;;;;;;;;;703686;28;1450;-65
2023/11/06 01:23:57;;;;;;;4.38;1.20;;;;;;;;;;705849;27;2456;-65
2023/11/06 01:24:18;;;;;;;5.45;1.20;;;;;;;;;;705447;27;971;-63
2023/11/06 01:24:39;;;;;;;4.90;1.20;;;;;;;;;;701451;28;1809;-67
2023/11/06 01:24:59;;;;;;;5.82;1.30;;;;;;;;;;699858;28;4232;-65
2023/11/06 01:25:19;;;;;;;5.90;1.47;;;;;;;;;;697965;28;1987;-66
2023/11/06 01:25:44;;;;;;;5.45;1.30;;;;;;;;;;696649;28;1832;-65
2023/11/06 01:26:04;;;;;;;5.13;1.20;;;;;;;;;;697896;28;1329;-66
2023/11/06 01:26:25;;;;;;;4.78;1.20;;;;;;;;;;695921;28;1328;-65
2023/11/06 01:26:45;;;;;;;5.90;1.33;;;;;;;;;;696772;28;1761;-65
2023/11/06 01:27:05;;;;;;;4.25;1.10;;;;;;;;;;697858;28;1170;-66
2023/11/06 01:27:25;;;;;;;4.00;1.17;;;;;;;;;;698585;28;816;-65
2023/11/06 01:27:46;;;;;;;4.40;1.00;;;;;;;;;;695734;28;4500;-63
2023/11/06 01:28:06;;;;;;;5.13;1.20;;;;;;;;;;697908;28;872;-63
2023/11/06 01:28:26;;;;;;;4.43;1.17;;;;;;;;;;699141;28;930;-64
2023/11/06 01:28:47;;;;;;;4.43;1.07;;;;;;;;;;696620;28;2739;-65
2023/11/06 01:29:07;;;;;;;4.10;1.30;;;;;;;;;;698489;28;931;-66
2023/11/06 01:29:27;;;;;;;5.30;1.23;;;;;;;;;;701463;28;900;-65
2023/11/06 01:29:48;;;;;;;4.47;1.50;;;;;;;;;;701092;28;2024;-64
2023/11/06 01:30:11;;;;;;;4.47;1.40;;;;;;;;;;705379;27;978;-65
2023/11/06 01:30:31;;;;;;;4.38;1.13;;;;;;;;;;701516;28;1315;-66
2023/11/06 01:30:51;;;;;;;3.37;1.20;;;;;;;;;;697969;28;4390;-66
2023/11/06 01:31:12;;;;;;;3.05;1.10;;;;;;;;;;697784;28;1394;-64
2023/11/06 01:31:32;;;;;;;4.03;1.10;;;;;;;;;;696312;28;942;-63
2023/11/06 01:31:52;;;;;;;4.80;1.50;;;;;;;;;;695926;28;1700;-68
2023/11/06 01:32:12;;;;;;;6.97;1.70;;;;;;;;;;698378;28;1504;-64
2023/11/06 01:32:33;;;;;;;6.50;1.20;;;;;;;;;;698114;28;860;-65
2023/11/06 01:32:53;;;;;;;4.83;1.20;;;;;;;;;;701184;28;2211;-65
2023/11/06 01:33:15;;;;;;;3.83;1.00;;;;;;;;;;700489;28;901;-65
2023/11/06 01:33:36;;;;;;;4.65;1.13;;;;;;;;;;700372;28;1246;-64
2023/11/06 01:33:56;;;;;;;6.33;1.30;;;;;;;;;;699895;28;4477;-65
2023/11/06 01:34:16;;;;;;;5.60;1.20;;;;;;;;;;704516;28;998;-65
2023/11/06 01:34:36;;;;;;;4.50;1.20;;;;;;;;;;701235;28;934;-65
2023/11/06 01:34:57;;;;;;;4.27;1.33;;;;;;;;;;699512;28;1714;-65
2023/11/06 01:35:19;;;;;;;5.13;1.70;;;;;;;;;;703659;28;903;-64
2023/11/06 01:35:39;;;;;;;5.95;1.50;;;;;;;;;;701521;28;1088;-65
2023/11/06 01:36:00;;;;;;;5.40;1.20;;;;;;;;;;703675;28;1186;-64
2023/11/06 01:36:20;;;;;;;5.50;1.40;;;;;;;;;;701829;28;1552;-64
2023/11/06 01:36:43;;;;;;;5.10;1.33;;;;;;;;;;699578;28;2292;-65
2023/11/06 01:37:03;;;;;;;4.40;1.10;;;;;;;;;;700674;28;4618;-65
2023/11/06 01:37:26;;;;;;;4.25;1.30;;;;;;;;;;701434;28;1403;-64
2023/11/06 01:37:46;;;;;;;3.65;1.02;;;;;;;;;;696796;28;1399;-65
2023/11/06 01:38:07;;;;;;;5.28;1.20;;;;;;;;;;697777;28;986;-66
2023/11/06 01:38:27;;;;;;;5.90;1.00;;;;;;;;;;701549;28;1313;-65
2023/11/06 01:38:48;;;;;;;3.10;1.00;;;;;;;;;;698790;28;5517;-64
2023/11/06 01:39:10;;;;;;;3.03;1.00;;;;;;;;;;701163;28;912;-64
2023/11/06 01:39:30;;;;;;;3.47;1.10;;;;;;;;;;698405;28;2079;-65
2023/11/06 01:39:50;;;;;;;3.67;1.10;;;;;;;;;;696388;28;4339;-66
2023/11/06 01:40:11;;;;;;;4.70;1.20;;;;;;;;;;696685;28;936;-67
2023/11/06 01:40:32;;;;;;;5.80;1.40;;;;;;;;;;698107;28;1340;-65
2023/11/06 01:40:52;;;;;;;4.70;1.37;;;;;;;;;;698435;28;1794;-65
2023/11/06 01:41:12;;;;;;;3.20;0.90;;;;;;;;;;700032;28;1403;-65
2023/11/06 01:41:32;;;;;;;4.73;1.00;;;;;;;;;;700611;28;917;-65
2023/11/06 01:41:53;;;;;;;5.07;1.13;;;;;;;;;;699444;28;1726;-68
2023/11/06 01:42:13;;;;;;;5.43;1.20;;;;;;;;;;697104;28;1287;-64
2023/11/06 01:42:33;;;;;;;4.40;1.10;;;;;;;;;;697557;28;1285;-64
2023/11/06 01:42:54;;;;;;;5.60;1.33;;;;;;;;;;693446;28;4391;-67
2023/11/06 01:43:21;;;;;;;4.90;1.20;;;;;;;;;;696997;28;978;-64
2023/11/06 01:43:41;;;;;;;5.18;1.20;;;;;;;;;;695982;28;2240;-65
2023/11/06 01:44:01;;;;;;;5.53;1.20;;;;;;;;;;696293;28;1898;-65
2023/11/06 01:44:21;;;;;;;5.43;1.23;;;;;;;;;;697015;28;1132;-65
2023/11/06 01:44:42;;;;;;;5.13;1.30;;;;;;;;;;695556;28;2538;-65
2023/11/06 01:45:04;;;;;;;4.53;1.30;;;;;;;;;;698413;28;762;-67
2023/11/06 01:45:25;;;;;;;5.00;1.20;;;;;;;;;;698389;28;1967;-65
2023/11/06 01:45:45;;;;;;;4.53;1.30;;;;;;;;;;694387;28;4589;-65
2023/11/06 01:46:05;;;;;;;7.23;2.40;;;;;;;;;;698573;28;982;-64
2023/11/06 01:46:27;;;;;;;6.90;2.20;;;;;;;;;;701012;28;828;-65
2023/11/06 01:46:48;;;;;;;4.43;1.20;;;;;;;;;;701804;28;1661;-64
2023/11/06 01:47:09;;;;;;;4.37;1.10;;;;;;;;;;699031;28;2427;-65
2023/11/06 01:47:29;;;;;;;4.25;1.00;;;;;;;;;;700892;28;829;-65
2023/11/06 01:47:50;;;;;;;3.88;1.10;;;;;;;;;;698418;28;2330;-64
2023/11/06 01:48:11;;;;;;;5.03;1.30;;;;;;;;;;701418;28;931;-65
2023/11/06 01:48:31;;;;;;;4.60;1.40;;;;;;;;;;699712;28;1035;-65
2023/11/06 01:48:51;;;;;;;6.75;1.40;;;;;;;;;;699210;28;4405;-65
2023/11/06 01:49:12;;;;;;;5.77;1.20;;;;;;;;;;703857;28;765;-66
2023/11/06 01:49:32;;;;;;;4.15;1.20;;;;;;;;;;699153;28;1701;-65
2023/11/06 01:49:53;;;;;;;3.97;1.30;;;;;;;;;;699072;28;1864;-65
2023/11/06 01:50:14;;;;;;;4.05;1.30;;;;;;;;;;697543;28;1373;-66
2023/11/06 01:50:35;;;;;;;4.60;1.42;;;;;;;;;;696619;28;1306;-64
2023/11/06 01:50:55;;;;;;;4.03;1.30;;;;;;;;;;695917;28;1777;-64
2023/11/06 01:51:15;;;;;;;4.33;1.10;;;;;;;;;;698013;28;1241;-63
2023/11/06 01:51:38;;;;;;;3.72;1.13;;;;;;;;;;702694;28;1517;-63
2023/11/06 01:51:58;;;;;;;4.85;1.40;;;;;;;;;;700202;28;4484;-64
2023/11/06 01:52:20;;;;;;;4.10;0.95;;;;;;;;;;702439;28;927;-63
2023/11/06 01:52:41;;;;;;;4.32;1.20;;;;;;;;;;702439;28;871;-63
2023/11/06 01:53:04;;;;;;;5.50;1.48;;;;;;;;;;699715;28;1514;-67
2023/11/06 01:53:25;;;;;;;3.95;1.20;;;;;;;;;;699959;28;833;-63
2023/11/06 01:53:47;;;;;;;5.85;1.30;;;;;;;;;;697466;28;2602;-64
2023/11/06 01:54:10;;;;;;;4.60;1.20;;;;;;;;;;699508;28;1231;-64
2023/11/06 01:54:31;;;;;;;3.08;1.05;;;;;;;;;;697731;28;995;-64
2023/11/06 01:54:51;;;;;;;3.47;0.90;;;;;;;;;;695165;28;4429;-64
2023/11/06 01:55:11;;;;;;;4.50;1.40;;;;;;;;;;698572;28;1278;-65
2023/11/06 01:55:32;;;;;;;5.53;1.43;;;;;;;;;;698453;28;971;-65
2023/11/06 01:55:52;;;;;;;4.43;1.10;;;;;;;;;;696245;28;2306;-65
2023/11/06 01:56:13;;;;;;;3.97;1.17;;;;;;;;;;700540;28;1397;-63
2023/11/06 01:56:36;;;;;;;3.95;1.10;;;;;;;;;;697736;28;1377;-63
2023/11/06 01:56:57;;;;;;;4.07;1.13;;;;;;;;;;696732;28;1907;-64
2023/11/06 01:57:17;;;;;;;5.55;1.27;;;;;;;;;;695845;28;1407;-65
2023/11/06 01:57:38;;;;;;;3.33;1.00;;;;;;;;;;696065;28;1297;-67
2023/11/06 01:57:59;;;;;;;3.25;0.95;;;;;;;;;;696161;28;4416;-64
2023/11/06 01:58:20;;;;;;;4.60;1.07;;;;;;;;;;696293;28;1263;-62
2023/11/06 01:58:41;;;;;;;3.92;1.10;;;;;;;;;;698683;28;1218;-63
2023/11/06 01:59:04;;;;;;;4.10;1.20;;;;;;;;;;697993;28;1237;-65
2023/11/06 01:59:25;;;;;;;4.50;1.30;;;;;;;;;;698378;28;1352;-66
2023/11/06 01:59:45;;;;;;;4.60;1.25;;;;;;;;;;693105;28;1670;-66
2023/11/06 02:00:09;;;;;;;5.28;1.20;;;;;;;;;;692568;28;1466;-67
2023/11/06 02:00:33;;;;;;;5.57;1.48;;;;;;;;;;695825;28;694;-64
2023/11/06 02:00:54;;;;;;;4.73;1.40;;;;;;;;;;697148;28;4342;-65
2023/11/06 02:01:15;;;;;;;5.22;1.30;;;;;;;;;;699714;28;800;-63
2023/11/06 02:01:36;;;;;;;4.63;1.13;;;;;;;;;;698628;28;1304;-65
2023/11/06 02:01:58;;;;;;;6.68;1.30;;;;;;;;;;699827;28;1366;-64
2023/11/06 02:02:19;;;;;;;4.45;1.20;;;;;;;;;;701282;28;978;-64
2023/11/06 02:02:41;;;;;;;5.85;1.30;;;;;;;;;;701542;28;931;-64
2023/11/06 02:03:01;;;;;;;6.07;1.50;;;;;;;;;;699439;28;2521;-64
2023/11/06 02:03:22;;;;;;;6.47;1.80;;;;;;;;;;701705;28;742;-63
2023/11/06 02:03:43;;;;;;;5.00;1.30;;;;;;;;;;702512;28;4301;-66
2023/11/06 02:04:06;;;;;;;4.32;1.17;;;;;;;;;;700513;28;1434;-64
2023/11/06 02:04:27;;;;;;;5.18;1.10;;;;;;;;;;704211;28;955;-63
2023/11/06 02:04:49;;;;;;;5.47;1.70;;;;;;;;;;702618;28;1257;-65
2023/11/06 02:05:09;;;;;;;3.80;1.20;;;;;;;;;;701176;28;1202;-65
2023/11/06 02:05:30;;;;;;;4.57;1.20;;;;;;;;;;701520;28;1921;-65
2023/11/06 02:05:51;;;;;;;4.60;1.30;;;;;;;;;;698050;28;2070;-64
2023/11/06 02:06:11;;;;;;;4.37;1.20;;;;;;;;;;698070;28;868;-63
2023/11/06 02:06:32;;;;;;;5.33;1.20;;;;;;;;;;698372;28;1154;-65
2023/11/06 02:06:53;;;;;;;5.00;1.20;;;;;;;;;;697451;28;4395;-64
2023/11/06 02:07:13;;;;;;;3.78;1.20;;;;;;;;;;700867;28;911;-63
2023/11/06 02:07:34;;;;;;;4.10;1.13;;;;;;;;;;698114;28;1205;-63
2023/11/06 02:07:54;;;;;;;4.22;1.10;;;;;;;;;;696441;28;2398;-64
2023/11/06 02:08:16;;;;;;;4.57;1.60;;;;;;;;;;696782;28;899;-63
2023/11/06 02:08:36;;;;;;;4.68;1.25;;;;;;;;;;697291;28;915;-63
2023/11/06 02:08:58;;;;;;;5.15;1.00;;;;;;;;;;694761;28;2708;-66